Time;durP1;ratioP1;P1;durP2;ratioP2;P2;SDS_P1;SDS_P2;PMS_P1;PMS_P2;Temp;Humidity;BMP_temperature;BMP_pressure;BME280_temperature;BME280_humidity;BME280_pressure;Samples;Min_cycle;Max_cycle;Signal;HPM_P1;HPM_P2
2022/12/20 00:01:24;;;;;;;17.63;14.13;;;;;;;-1.21;92.96;94490.41;5091657;28;20221;-72
2022/12/20 00:03:53;;;;;;;15.53;14.13;;;;;;;-1.15;92.66;94488.97;5091800;28;20211;-72
2022/12/20 00:06:19;;;;;;;17.17;15.53;;;;;;;-1.23;92.89;94479.50;5104439;28;20220;-72
2022/12/20 00:08:45;;;;;;;19.13;14.30;;;;;;;-1.12;92.96;94491.22;5079497;28;20181;-72
2022/12/20 00:11:11;;;;;;;16.80;15.20;;;;;;;-1.12;92.50;94494.56;5091123;28;20217;-72
2022/12/20 00:13:37;;;;;;;18.67;15.13;;;;;;;-1.13;92.27;94502.41;5091617;28;20209;-73
2022/12/20 00:16:08;;;;;;;16.00;14.47;;;;;;;-1.14;91.32;94500.81;5091065;28;20223;-72
2022/12/20 00:18:35;;;;;;;16.70;15.13;;;;;;;-1.08;90.04;94502.72;5091336;28;20172;-72
2022/12/20 00:21:01;;;;;;;15.13;13.70;;;;;;;-1.08;89.09;94505.28;5090677;28;20232;-72
2022/12/20 00:23:28;;;;;;;16.97;15.13;;;;;;;-1.20;88.87;94489.47;5086093;28;20192;-72
2022/12/20 00:26:01;;;;;;;19.73;13.93;;;;;;;-1.10;88.77;94502.88;5084383;28;20289;-73
2022/12/20 00:28:27;;;;;;;14.17;12.80;;;;;;;-1.32;88.99;94497.63;5083539;28;20193;-72
2022/12/20 00:30:53;;;;;;;16.33;14.77;;;;;;;-1.30;89.13;94500.81;5085072;28;20224;-72
2022/12/20 00:33:19;;;;;;;17.23;15.50;;;;;;;-1.16;89.22;94508.66;5091393;28;20184;-72
2022/12/20 00:35:44;;;;;;;16.90;15.10;;;;;;;-1.18;89.77;94499.56;5091307;28;20258;-72
2022/12/20 00:38:09;;;;;;;17.77;16.17;;;;;;;-1.15;88.55;94506.91;5091381;28;20208;-72
2022/12/20 00:40:35;;;;;;;16.07;14.57;;;;;;;-1.17;88.16;94507.06;5084956;28;20182;-72
2022/12/20 00:43:00;;;;;;;16.20;14.63;;;;;;;-1.11;87.35;94496.19;5091355;28;20204;-72
2022/12/20 00:45:25;;;;;;;15.20;14.00;;;;;;;-1.23;88.35;94497.44;5090637;28;20977;-72
2022/12/20 00:47:51;;;;;;;15.63;14.27;;;;;;;-1.39;88.26;94487.22;5090829;28;20223;-72
2022/12/20 00:50:16;;;;;;;15.97;14.37;;;;;;;-1.32;88.36;94488.16;5090722;28;20185;-72
2022/12/20 00:52:41;;;;;;;16.23;14.73;;;;;;;-1.53;88.75;94464.81;5090389;28;20265;-72
2022/12/20 00:55:07;;;;;;;15.03;13.53;;;;;;;-1.48;88.27;94475.38;5090457;28;20180;-72
2022/12/20 00:57:32;;;;;;;15.17;13.90;;;;;;;-1.39;88.53;94494.91;5077919;28;20224;-72
2022/12/20 00:59:58;;;;;;;15.87;14.17;;;;;;;-1.58;89.59;94502.09;5090845;28;20209;-72
2022/12/20 01:02:23;;;;;;;17.47;15.73;;;;;;;-1.60;90.48;94504.03;5089685;28;20228;-72
2022/12/20 01:04:49;;;;;;;14.93;13.50;;;;;;;-1.69;90.22;94508.31;5090740;28;20176;-72
2022/12/20 01:07:14;;;;;;;17.20;15.57;;;;;;;-1.66;90.37;94498.56;5090428;28;20212;-72
2022/12/20 01:09:39;;;;;;;16.10;14.57;;;;;;;-1.60;90.63;94501.47;5086022;28;20165;-72
2022/12/20 01:12:05;;;;;;;16.10;14.67;;;;;;;-1.45;90.32;94500.66;5089831;28;20217;-72
2022/12/20 01:14:30;;;;;;;16.00;14.60;;;;;;;-1.53;90.11;94499.84;5091044;28;20189;-72
2022/12/20 01:16:56;;;;;;;15.30;13.23;;;;;;;-1.55;88.39;94486.41;5089282;28;20747;-72
2022/12/20 01:19:21;;;;;;;15.70;14.40;;;;;;;-1.66;88.58;94496.00;5090580;28;20196;-72
2022/12/20 01:21:46;;;;;;;15.70;14.27;;;;;;;-1.69;89.01;94486.09;5076645;28;20224;-72
2022/12/20 01:24:17;;;;;;;15.47;13.90;;;;;;;-1.60;89.10;94475.84;5090390;28;20189;-72
2022/12/20 01:26:43;;;;;;;15.23;14.03;;;;;;;-1.65;88.44;94472.00;5076971;28;20228;-72
2022/12/20 01:29:09;;;;;;;15.03;13.83;;;;;;;-1.67;87.50;94481.59;5090231;28;20185;-72
2022/12/20 01:31:35;;;;;;;16.37;14.10;;;;;;;-1.77;87.83;94467.34;5089800;28;20224;-72
2022/12/20 01:34:01;;;;;;;14.80;13.60;;;;;;;-1.88;88.15;94467.66;5090189;28;20797;-71
2022/12/20 01:36:29;;;;;;;14.80;13.37;;;;;;;-1.72;87.49;94460.81;5089546;28;20254;-71
2022/12/20 01:38:59;;;;;;;13.77;12.57;;;;;;;-1.77;86.44;94440.00;5088779;28;20175;-73
2022/12/20 01:41:26;;;;;;;14.40;13.17;;;;;;;-1.77;86.05;94464.78;5090344;28;20258;-72
2022/12/20 01:43:55;;;;;;;16.27;13.67;;;;;;;-1.82;85.90;94444.78;5090865;28;20223;-74
2022/12/20 01:46:23;;;;;;;14.53;13.03;;;;;;;-1.72;85.97;94453.13;5069316;28;20217;-71
2022/12/20 01:49:07;;;;;;;15.33;13.93;;;;;;;-1.70;84.97;94448.63;5089992;28;20220;-71
2022/12/20 01:51:38;;;;;;;15.57;14.27;;;;;;;-1.86;85.56;94448.63;5089908;28;20240;-70
2022/12/20 01:54:11;;;;;;;15.30;14.17;;;;;;;-1.82;85.21;94449.91;5090261;28;20218;-71
2022/12/20 01:56:39;;;;;;;15.17;13.70;;;;;;;-1.82;84.63;94447.34;5078196;28;20255;-71
2022/12/20 01:59:06;;;;;;;14.80;13.37;;;;;;;-1.74;84.92;94442.25;5090300;28;20984;-71
2022/12/20 02:01:32;;;;;;;15.97;14.47;;;;;;;-1.75;84.10;94437.28;5089156;28;20208;-70
2022/12/20 02:03:58;;;;;;;15.40;14.20;;;;;;;-1.83;84.33;94420.16;5089853;28;20253;-71
2022/12/20 02:06:25;;;;;;;15.03;12.93;;;;;;;-1.93;82.93;94408.50;5090274;28;20216;-71
2022/12/20 02:08:52;;;;;;;15.77;14.33;;;;;;;-1.79;83.08;94430.91;5082602;28;20176;-71
2022/12/20 02:11:51;;;;;;;15.07;13.70;;;;;;;-1.90;81.86;94434.53;5089527;28;20225;-72
2022/12/20 02:14:54;;;;;;;15.80;14.20;;;;;;;-1.84;81.40;94420.31;5086334;28;20264;-72
2022/12/20 02:17:44;;;;;;;16.03;13.37;;;;;;;-2.02;81.79;94417.91;5085770;28;20224;-71
2022/12/20 02:20:30;;;;;;;13.67;12.63;;;;;;;-1.95;82.24;94418.88;5089528;28;20227;-71
2022/12/20 02:23:28;;;;;;;14.97;13.73;;;;;;;-1.99;81.45;94432.94;5074168;28;20228;-71
2022/12/20 02:26:08;;;;;;;14.40;12.27;;;;;;;-2.10;82.12;94435.81;5066802;28;20232;-70
2022/12/20 02:29:04;;;;;;;15.27;14.00;;;;;;;-2.10;83.81;94435.03;5089957;28;20188;-70
2022/12/20 02:31:38;;;;;;;14.40;13.20;;;;;;;-2.18;82.90;94435.78;5089364;28;20905;-71
2022/12/20 02:34:06;;;;;;;14.17;12.87;;;;;;;-2.24;83.37;94425.41;5089284;28;20240;-71
2022/12/20 02:36:32;;;;;;;14.30;12.90;;;;;;;-2.20;83.58;94432.59;5072113;28;20251;-71
2022/12/20 02:38:57;;;;;;;13.10;11.97;;;;;;;-2.22;84.35;94442.19;5072049;28;20173;-71
2022/12/20 02:41:33;;;;;;;14.63;13.33;;;;;;;-2.16;84.26;94441.56;5089348;28;20276;-71
2022/12/20 02:46:49;;;;;;;16.50;13.60;;;;;;;-2.37;84.57;94420.75;5084715;28;20240;-71
2022/12/20 02:49:23;;;;;;;13.30;12.20;;;;;;;-2.35;84.59;94423.13;5081313;28;20177;-70
2022/12/20 02:51:52;;;;;;;13.97;12.70;;;;;;;-2.22;84.77;94428.59;5089094;28;20802;-71
2022/12/20 02:54:18;;;;;;;14.00;12.80;;;;;;;-2.34;84.77;94417.06;5085314;28;20203;-71
2022/12/20 02:56:50;;;;;;;14.00;12.70;;;;;;;-2.38;85.10;94411.44;5089129;28;20225;-71
2022/12/20 02:59:22;;;;;;;14.80;13.30;;;;;;;-2.34;84.68;94422.97;5089145;28;20185;-70
2022/12/20 03:01:50;;;;;;;16.50;15.00;;;;;;;-2.53;85.36;94418.13;5089271;28;20227;-71
2022/12/20 03:04:20;;;;;;;16.47;14.70;;;;;;;-2.39;85.27;94416.72;5089525;28;20188;-71
2022/12/20 03:07:03;;;;;;;15.20;13.97;;;;;;;-2.41;85.74;94421.22;5089742;28;20228;-71
2022/12/20 03:09:31;;;;;;;14.40;13.17;;;;;;;-2.56;84.70;94400.53;5075656;28;20196;-71
2022/12/20 03:11:56;;;;;;;17.43;15.67;;;;;;;-2.44;84.51;94403.59;5089152;28;20239;-70
2022/12/20 03:14:21;;;;;;;15.47;14.00;;;;;;;-2.20;83.66;94417.25;5077883;28;20200;-70
2022/12/20 03:16:47;;;;;;;13.77;12.60;;;;;;;-2.27;84.12;94406.03;5088994;28;20250;-69
2022/12/20 03:19:12;;;;;;;14.47;13.20;;;;;;;-2.22;82.61;94400.44;5089376;28;20173;-70
2022/12/20 03:21:38;;;;;;;15.30;13.47;;;;;;;-2.32;83.55;94397.25;5086981;28;20235;-70
2022/12/20 03:24:03;;;;;;;14.03;12.83;;;;;;;-2.37;85.08;94402.03;5088452;28;20215;-69
2022/12/20 03:26:29;;;;;;;15.17;13.63;;;;;;;-2.30;84.73;94413.22;5089393;28;20227;-73
2022/12/20 03:28:54;;;;;;;16.10;14.63;;;;;;;-2.40;84.68;94410.81;5089222;28;20184;-71
2022/12/20 03:31:19;;;;;;;14.57;13.33;;;;;;;-2.53;85.37;94404.53;5089812;28;20318;-71
2022/12/20 03:33:45;;;;;;;14.97;13.47;;;;;;;-2.41;85.22;94401.53;5092508;28;20188;-71
2022/12/20 03:36:10;;;;;;;14.10;12.93;;;;;;;-2.40;84.95;94413.38;5091084;28;20227;-71
2022/12/20 03:38:35;;;;;;;14.13;12.83;;;;;;;-2.40;85.07;94405.72;5089409;28;20184;-70
2022/12/20 03:41:01;;;;;;;14.87;13.57;;;;;;;-2.43;85.08;94400.09;5083477;28;20244;-71
2022/12/20 03:43:26;;;;;;;15.17;13.73;;;;;;;-2.36;83.49;94412.09;5092807;28;20193;-71
2022/12/20 03:45:51;;;;;;;15.67;14.40;;;;;;;-2.52;84.83;94409.50;5092254;28;20274;-71
2022/12/20 03:48:17;;;;;;;14.83;13.40;;;;;;;-2.77;85.78;94392.47;5091506;28;20186;-71
2022/12/20 03:50:42;;;;;;;15.10;13.83;;;;;;;-2.61;86.01;94400.22;5090798;28;20311;-71
2022/12/20 03:53:07;;;;;;;16.47;14.13;;;;;;;-2.52;84.87;94404.38;5089617;28;20220;-71
2022/12/20 03:55:33;;;;;;;14.87;13.53;;;;;;;-2.57;85.43;94391.28;5092599;28;20185;-71
2022/12/20 03:57:58;;;;;;;15.87;14.27;;;;;;;-2.70;85.73;94393.47;5092860;28;20185;-71
2022/12/20 04:00:24;;;;;;;15.53;14.03;;;;;;;-2.66;86.29;94371.75;5092434;28;20185;-71
2022/12/20 04:02:49;;;;;;;15.43;13.80;;;;;;;-2.60;86.04;94391.56;5092565;28;20204;-71
2022/12/20 04:05:15;;;;;;;15.73;14.13;;;;;;;-2.67;86.40;94400.03;5092043;28;20185;-72
2022/12/20 04:07:40;;;;;;;15.80;14.30;;;;;;;-2.70;86.36;94385.81;5088946;28;20208;-71
2022/12/20 04:10:06;;;;;;;14.43;13.23;;;;;;;-2.78;85.10;94388.34;5092693;28;20196;-70
2022/12/20 04:12:32;;;;;;;14.33;13.10;;;;;;;-2.76;85.65;94393.28;5091718;28;20244;-71
2022/12/20 04:14:57;;;;;;;15.33;13.87;;;;;;;-2.94;86.27;94390.81;5092035;28;20204;-71
2022/12/20 04:17:22;;;;;;;13.63;12.47;;;;;;;-2.81;86.56;94403.16;5091904;28;20212;-70
2022/12/20 04:19:48;;;;;;;14.30;13.07;;;;;;;-2.99;86.04;94377.72;5091783;28;20232;-71
2022/12/20 04:22:13;;;;;;;15.93;14.53;;;;;;;-2.94;86.33;94372.94;5069746;28;20221;-71
2022/12/20 04:24:38;;;;;;;15.17;13.60;;;;;;;-3.27;87.76;94389.09;5092539;28;20241;-71
2022/12/20 04:27:04;;;;;;;21.33;16.10;;;;;;;-3.19;87.40;94383.22;5091521;28;20249;-71
2022/12/20 04:29:30;;;;;;;27.90;17.43;;;;;;;-3.16;86.71;94383.72;5092118;28;20872;-70
2022/12/20 04:31:55;;;;;;;20.77;18.30;;;;;;;-3.28;86.85;94375.50;5091077;28;20281;-71
2022/12/20 04:34:21;;;;;;;20.17;16.80;;;;;;;-3.23;86.85;94377.59;5074656;28;20185;-71
2022/12/20 04:36:46;;;;;;;15.97;14.67;;;;;;;-3.21;86.92;94380.81;5078863;28;20228;-71
2022/12/20 04:39:11;;;;;;;16.57;13.90;;;;;;;-3.33;87.89;94382.00;5084010;28;20184;-71
2022/12/20 04:41:37;;;;;;;14.13;13.03;;;;;;;-3.46;87.73;94363.78;5098200;28;20239;-71
2022/12/20 04:44:02;;;;;;;14.00;12.63;;;;;;;-3.26;87.90;94380.47;5091003;28;20180;-71
2022/12/20 04:46:27;;;;;;;14.50;13.13;;;;;;;-3.41;88.34;94385.31;5098044;28;20216;-71
2022/12/20 04:48:53;;;;;;;15.27;12.97;;;;;;;-3.41;88.87;94385.31;5080223;28;20180;-72
2022/12/20 04:51:19;;;;;;;13.50;12.17;;;;;;;-3.40;88.78;94381.03;5091086;28;20232;-69
2022/12/20 04:53:47;;;;;;;13.43;12.23;;;;;;;-3.51;88.97;94388.94;5091741;28;20238;-70
2022/12/20 04:56:19;;;;;;;14.17;13.00;;;;;;;-3.58;89.97;94382.84;5090978;28;20235;-73
2022/12/20 04:58:45;;;;;;;14.67;13.30;;;;;;;-3.65;89.18;94386.94;5091603;28;20181;-73
2022/12/20 05:01:11;;;;;;;13.60;12.53;;;;;;;-3.69;88.80;94383.09;5090652;28;20235;-72
2022/12/20 05:03:37;;;;;;;14.13;12.93;;;;;;;-3.54;88.64;94372.19;5091846;28;20208;-71
2022/12/20 05:06:02;;;;;;;13.10;12.07;;;;;;;-3.76;89.27;94382.06;5090102;28;20232;-71
2022/12/20 05:08:28;;;;;;;14.00;12.70;;;;;;;-3.72;89.45;94378.28;5093879;28;20188;-71
2022/12/20 05:10:54;;;;;;;14.83;13.50;;;;;;;-3.77;90.09;94367.72;5096433;28;20228;-71
2022/12/20 05:13:25;;;;;;;14.17;12.90;;;;;;;-3.86;88.87;94359.19;5100307;28;20196;-72
2022/12/20 05:15:52;;;;;;;13.00;11.90;;;;;;;-3.71;90.08;94372.22;5092054;28;20258;-70
2022/12/20 05:18:17;;;;;;;14.80;13.40;;;;;;;-3.84;89.39;94376.91;5091097;28;20185;-71
2022/12/20 05:20:43;;;;;;;13.90;12.60;;;;;;;-3.95;90.10;94359.28;5090420;28;20225;-71
2022/12/20 05:28:38;;;;;;;16.37;14.77;;;;;;;-3.99;89.88;94388.59;5084751;28;20275;-71
2022/12/20 05:31:04;;;;;;;16.10;14.70;;;;;;;-3.99;90.32;94368.19;5083916;28;20216;-68
2022/12/20 05:33:29;;;;;;;22.33;16.57;;;;;;;-3.86;88.98;94369.41;5085866;28;20192;-73
2022/12/20 05:35:55;;;;;;;20.93;15.73;;;;;;;-3.79;90.76;94382.38;5090347;28;20220;-70
2022/12/20 05:38:21;;;;;;;28.50;19.87;;;;;;;-3.70;90.13;94378.91;5090364;28;20197;-69
2022/12/20 05:40:47;;;;;;;35.03;21.13;;;;;;;-3.70;89.56;94376.38;5090336;28;20228;-70
2022/12/20 05:43:14;;;;;;;41.63;25.47;;;;;;;-3.76;89.20;94385.44;5090140;28;20270;-71
2022/12/20 05:45:39;;;;;;;18.53;16.30;;;;;;;-4.03;88.89;94364.34;5090322;28;20299;-70
2022/12/20 05:48:05;;;;;;;16.33;14.83;;;;;;;-3.98;90.60;94385.09;5090575;28;20189;-69
2022/12/20 05:50:31;;;;;;;16.50;14.83;;;;;;;-3.99;89.99;94368.19;5079620;28;20180;-69
2022/12/20 05:52:56;;;;;;;17.17;15.57;;;;;;;-3.96;90.02;94370.47;5090102;28;20240;-70
2022/12/20 05:55:22;;;;;;;16.17;14.47;;;;;;;-3.84;89.50;94379.47;5089143;28;20913;-70
2022/12/20 05:57:47;;;;;;;15.47;13.87;;;;;;;-3.77;89.04;94390.69;5089849;28;20192;-71
2022/12/20 06:00:14;;;;;;;14.17;12.77;;;;;;;-3.79;87.97;94390.03;5089856;28;20208;-72
2022/12/20 06:02:40;;;;;;;15.83;14.23;;;;;;;-3.76;88.38;94389.72;5076691;28;20927;-69
2022/12/20 06:05:05;;;;;;;17.17;15.03;;;;;;;-3.73;88.88;94384.31;5072388;28;20195;-70
2022/12/20 06:07:31;;;;;;;16.10;14.73;;;;;;;-3.76;88.70;94399.94;5090141;28;20224;-70
2022/12/20 06:09:57;;;;;;;17.97;15.47;;;;;;;-3.73;88.36;94394.53;5090105;28;20177;-70
2022/12/20 06:12:23;;;;;;;15.40;14.10;;;;;;;-3.50;87.84;94395.63;5089835;28;20221;-71
2022/12/20 06:14:48;;;;;;;22.63;16.83;;;;;;;-3.60;87.21;94384.75;5089912;28;20244;-71
2022/12/20 06:17:14;;;;;;;27.87;18.33;;;;;;;-3.57;88.37;94399.75;5083195;28;20259;-70
2022/12/20 06:19:40;;;;;;;28.47;18.90;;;;;;;-3.64;88.02;94391.06;5075580;28;20185;-69
2022/12/20 06:22:07;;;;;;;35.73;21.73;;;;;;;-3.62;88.46;94397.66;5083684;28;20832;-70
2022/12/20 06:24:35;;;;;;;31.53;19.90;;;;;;;-3.63;88.34;94400.34;5087920;28;20200;-69
2022/12/20 06:27:01;;;;;;;21.57;17.27;;;;;;;-3.74;89.00;94391.19;5087105;28;20216;-69
2022/12/20 06:29:27;;;;;;;22.40;17.90;;;;;;;-3.57;88.53;94389.53;5086911;28;20193;-70
2022/12/20 06:31:52;;;;;;;22.33;17.03;;;;;;;-3.60;89.18;94379.63;5085388;28;20224;-70
2022/12/20 06:34:18;;;;;;;19.73;16.53;;;;;;;-3.59;89.62;94401.66;5088046;28;20208;-71
2022/12/20 06:36:43;;;;;;;28.53;19.43;;;;;;;-3.39;88.66;94397.94;5088709;28;20223;-70
2022/12/20 06:39:09;;;;;;;44.80;27.83;;;;;;;-3.30;89.10;94386.84;5086721;28;20247;-70
2022/12/20 06:41:35;;;;;;;28.70;22.30;;;;;;;-3.16;88.48;94399.03;5084140;28;20267;-70
2022/12/20 06:44:00;;;;;;;24.67;18.80;;;;;;;-3.12;87.28;94394.41;5087518;28;20240;-70
2022/12/20 06:46:26;;;;;;;28.43;24.73;;;;;;;-3.22;87.49;94380.97;5087409;28;20244;-68
2022/12/20 06:48:54;;;;;;;21.13;16.60;;;;;;;-3.19;86.36;94383.22;5088505;28;20160;-68
2022/12/20 06:51:20;;;;;;;20.93;16.93;;;;;;;-2.99;86.73;94382.03;5087560;28;20224;-67
2022/12/20 06:53:45;;;;;;;18.87;15.60;;;;;;;-3.02;86.33;94379.78;5087851;28;20873;-68
2022/12/20 06:56:10;;;;;;;19.20;17.07;;;;;;;-3.04;88.44;94382.50;5071959;28;20242;-68
2022/12/20 06:58:36;;;;;;;17.80;16.10;;;;;;;-3.10;88.86;94375.44;5085348;28;20191;-67
2022/12/20 07:01:01;;;;;;;16.63;14.93;;;;;;;-3.15;90.59;94384.50;5085444;28;20709;-67
2022/12/20 07:03:26;;;;;;;15.20;13.77;;;;;;;-3.26;91.12;94365.16;5093081;28;20199;-69
2022/12/20 07:05:53;;;;;;;15.57;14.17;;;;;;;-2.80;88.56;94363.91;5079371;28;20225;-68
2022/12/20 07:08:19;;;;;;;16.87;15.23;;;;;;;-2.92;87.47;94345.50;5092782;28;20188;-72
2022/12/20 07:10:45;;;;;;;18.97;17.17;;;;;;;-2.95;88.18;94360.31;5091500;28;20276;-71
2022/12/20 07:13:10;;;;;;;20.57;16.67;;;;;;;-2.83;87.18;94365.00;5092706;28;20278;-70
2022/12/20 07:15:36;;;;;;;19.37;15.50;;;;;;;-2.70;85.46;94355.13;5091361;28;20192;-69
2022/12/20 07:18:02;;;;;;;17.53;15.80;;;;;;;-2.58;83.35;94348.78;5084270;28;20253;-71
2022/12/20 07:20:27;;;;;;;21.20;17.13;;;;;;;-2.75;83.79;94349.69;5090656;28;20224;-70
2022/12/20 07:22:52;;;;;;;17.13;14.13;;;;;;;-2.74;83.55;94369.16;5074348;28;20195;-70
2022/12/20 07:25:18;;;;;;;17.10;15.47;;;;;;;-2.77;83.24;94364.38;5092139;28;20193;-70
2022/12/20 07:27:47;;;;;;;18.40;16.30;;;;;;;-2.70;83.64;94342.34;5089572;28;20232;-70
2022/12/20 07:30:13;;;;;;;16.93;15.13;;;;;;;-2.66;82.78;94366.63;5087409;28;20251;-69
2022/12/20 07:32:38;;;;;;;20.87;15.93;;;;;;;-2.84;81.54;94363.41;5088978;28;20258;-68
2022/12/20 07:35:04;;;;;;;16.83;15.07;;;;;;;-2.75;83.53;94351.44;5089962;28;20295;-67
2022/12/20 07:37:30;;;;;;;16.97;15.07;;;;;;;-2.73;82.30;94359.75;5087749;28;20251;-70
2022/12/20 07:39:55;;;;;;;15.80;14.30;;;;;;;-2.51;81.45;94364.28;5090963;28;20176;-69
2022/12/20 07:42:21;;;;;;;17.80;15.87;;;;;;;-2.64;79.94;94343.47;5089418;28;20235;-69
2022/12/20 07:44:46;;;;;;;17.83;15.03;;;;;;;-2.59;79.67;94372.75;5089933;28;20207;-69
2022/12/20 07:47:11;;;;;;;17.40;15.60;;;;;;;-2.73;79.66;94308.66;5085866;28;20231;-70
2022/12/20 07:49:37;;;;;;;14.30;13.10;;;;;;;-2.46;79.35;94360.28;5090234;28;20217;-69
2022/12/20 07:52:04;;;;;;;15.60;14.10;;;;;;;-2.43;79.53;94366.88;5089877;28;20217;-69
2022/12/20 07:54:34;;;;;;;16.00;14.70;;;;;;;-2.23;80.47;94363.84;5087613;28;20210;-71
2022/12/20 07:57:05;;;;;;;13.37;12.37;;;;;;;-1.76;78.22;94367.34;5085113;28;20216;-71
2022/12/20 07:59:40;;;;;;;13.90;12.73;;;;;;;-1.95;78.95;94352.34;5075622;28;20256;-69
2022/12/20 08:02:09;;;;;;;15.27;13.77;;;;;;;-1.84;80.15;94352.00;5090839;28;20220;-69
2022/12/20 08:04:35;;;;;;;15.13;13.83;;;;;;;-1.93;79.01;94365.00;5086087;28;20192;-69
2022/12/20 08:07:01;;;;;;;16.17;14.50;;;;;;;-1.47;77.80;94363.47;5087030;28;20231;-68
2022/12/20 08:09:33;;;;;;;16.57;15.23;;;;;;;-1.48;76.49;94346.53;5090983;28;20200;-67
2022/12/20 08:11:59;;;;;;;14.10;13.03;;;;;;;-1.36;77.85;94353.72;5085234;28;20233;-69
2022/12/20 08:14:24;;;;;;;14.93;13.70;;;;;;;-1.25;75.23;94355.13;5091608;28;20200;-69
2022/12/20 08:16:50;;;;;;;15.30;13.77;;;;;;;-1.47;76.64;94346.38;5083534;28;21090;-70
2022/12/20 08:19:15;;;;;;;14.30;13.10;;;;;;;-1.37;78.12;94349.53;5089439;28;20181;-69
2022/12/20 08:21:40;;;;;;;16.10;14.40;;;;;;;-0.91;73.83;94353.88;5085805;28;20220;-69
2022/12/20 08:24:07;;;;;;;14.27;12.87;;;;;;;-1.08;74.32;94356.66;5083847;28;20194;-69
2022/12/20 08:26:37;;;;;;;20.33;17.17;;;;;;;-1.02;73.83;94350.88;5085725;28;20209;-69
2022/12/20 08:29:02;;;;;;;15.03;13.80;;;;;;;-1.07;74.34;94348.81;5082452;28;20220;-69
2022/12/20 08:31:27;;;;;;;14.70;13.47;;;;;;;-0.97;75.24;94353.75;5084598;28;20228;-69
2022/12/20 08:33:53;;;;;;;14.40;13.33;;;;;;;-0.97;74.56;94348.63;5088632;28;20191;-69
2022/12/20 08:36:19;;;;;;;13.93;12.77;;;;;;;-0.74;71.89;94355.41;5084030;28;20229;-69
2022/12/20 08:38:44;;;;;;;14.20;12.83;;;;;;;-0.69;72.37;94348.00;5086920;28;20177;-69
2022/12/20 08:41:13;;;;;;;14.40;13.07;;;;;;;-0.72;72.37;94339.84;5085420;28;20240;-68
2022/12/20 08:43:40;;;;;;;15.37;13.67;;;;;;;-0.59;72.25;94342.69;5086417;28;20208;-67
2022/12/20 08:46:07;;;;;;;16.40;14.83;;;;;;;-0.84;72.89;94318.13;5097631;28;20300;-68
2022/12/20 08:48:33;;;;;;;14.90;13.63;;;;;;;-0.71;74.30;94333.75;5098855;28;20201;-68
2022/12/20 08:51:02;;;;;;;14.80;13.50;;;;;;;-0.38;72.04;94338.53;5094081;28;20236;-68
2022/12/20 08:53:28;;;;;;;13.60;12.47;;;;;;;-0.28;69.85;94335.75;5090457;28;20261;-68
2022/12/20 08:56:01;;;;;;;14.10;12.73;;;;;;;-0.51;71.38;94337.47;5091028;28;20251;-69
2022/12/20 08:58:26;;;;;;;16.17;14.57;;;;;;;-0.25;71.71;94349.03;5082756;28;20265;-69
2022/12/20 09:00:52;;;;;;;16.97;14.43;;;;;;;-0.25;70.89;94340.53;5089118;28;20232;-67
2022/12/20 09:03:17;;;;;;;16.10;14.60;;;;;;;-0.41;72.28;94327.81;5090492;28;20195;-67
2022/12/20 09:05:45;;;;;;;15.33;13.87;;;;;;;-0.39;71.87;94328.44;5090822;28;20219;-66
2022/12/20 09:08:10;;;;;;;17.67;14.10;;;;;;;-0.48;72.36;94314.06;5092081;28;20323;-67
2022/12/20 09:10:35;;;;;;;15.70;13.03;;;;;;;-0.37;71.54;94323.91;5086004;28;20180;-69
2022/12/20 09:13:01;;;;;;;14.93;13.53;;;;;;;-0.46;72.08;94317.25;5090832;28;20238;-68
2022/12/20 09:15:26;;;;;;;15.87;14.20;;;;;;;-0.09;69.40;94312.19;5090643;28;20192;-68
2022/12/20 09:17:52;;;;;;;13.30;12.07;;;;;;;-0.06;69.64;94319.53;5082611;28;20192;-70
2022/12/20 09:20:17;;;;;;;15.77;14.43;;;;;;;-0.07;69.89;94310.25;5090663;28;20248;-67
2022/12/20 09:22:43;;;;;;;14.43;13.13;;;;;;;-0.03;69.59;94303.78;5090583;28;20221;-68
2022/12/20 09:25:08;;;;;;;15.70;14.10;;;;;;;-0.13;68.83;94295.53;5079178;28;20194;-67
2022/12/20 09:27:34;;;;;;;14.97;13.50;;;;;;;-0.20;70.08;94302.31;5090149;28;20216;-68
2022/12/20 09:29:59;;;;;;;13.87;12.77;;;;;;;-0.32;70.35;94304.50;5089634;28;20267;-67
2022/12/20 09:32:24;;;;;;;14.93;13.57;;;;;;;-0.43;71.79;94302.31;5089992;28;20235;-68
2022/12/20 09:34:50;;;;;;;15.60;14.10;;;;;;;-0.20;71.14;94290.28;5090298;28;20256;-68
2022/12/20 09:37:15;;;;;;;16.50;13.77;;;;;;;-0.18;70.23;94274.72;5090363;28;20228;-67
2022/12/20 09:39:41;;;;;;;14.60;13.20;;;;;;;-0.09;70.80;94289.88;5087209;28;20220;-69
2022/12/20 09:42:08;;;;;;;15.53;13.93;;;;;;;-0.05;69.96;94298.03;5084228;28;20235;-68
2022/12/20 09:44:37;;;;;;;15.57;13.97;;;;;;;-0.12;70.75;94292.00;5089278;28;20276;-69
2022/12/20 09:47:14;;;;;;;14.57;13.40;;;;;;;-0.36;72.17;94279.34;5085020;28;20256;-69
2022/12/20 09:49:42;;;;;;;15.73;14.13;;;;;;;-0.24;71.14;94277.97;5084482;28;20198;-68
2022/12/20 09:52:29;;;;;;;14.40;13.13;;;;;;;-0.03;71.58;94278.09;5088708;28;20236;-69
2022/12/20 09:54:59;;;;;;;15.23;14.00;;;;;;;0.41;69.26;94285.88;5079642;28;20189;-69
2022/12/20 09:57:55;;;;;;;16.57;15.20;;;;;;;0.30;69.64;94279.41;5088605;28;20228;-70
2022/12/20 10:00:20;;;;;;;14.83;13.47;;;;;;;0.53;67.60;94266.50;5084601;28;20222;-71
2022/12/20 10:02:47;;;;;;;15.37;14.03;;;;;;;0.43;67.88;94264.22;5088715;28;20185;-68
2022/12/20 10:05:44;;;;;;;20.20;14.23;;;;;;;0.55;67.05;94265.34;5088693;28;20169;-69
2022/12/20 10:08:29;;;;;;;18.03;15.37;;;;;;;0.50;67.84;94267.66;5088141;28;20213;-68
2022/12/20 10:11:01;;;;;;;16.87;14.57;;;;;;;0.59;66.70;94255.53;5081510;28;20234;-68
2022/12/20 10:13:57;;;;;;;16.43;15.03;;;;;;;0.29;68.54;94257.28;5086584;28;20212;-69
2022/12/20 10:16:42;;;;;;;16.87;14.90;;;;;;;0.30;68.34;94230.63;5087871;28;20224;-70
2022/12/20 10:19:16;;;;;;;14.87;13.27;;;;;;;0.37;68.16;94231.53;5085631;28;20204;-69
2022/12/20 10:22:06;;;;;;;14.40;13.07;;;;;;;0.76;67.45;94224.31;5088107;28;20270;-69
2022/12/20 10:24:33;;;;;;;16.77;15.13;;;;;;;0.66;67.36;94217.84;5081398;28;20210;-70
2022/12/20 10:27:19;;;;;;;16.70;15.23;;;;;;;0.90;66.68;94208.03;5085241;28;20221;-68
2022/12/20 10:29:46;;;;;;;16.03;14.23;;;;;;;0.77;67.46;94197.63;5087569;28;20180;-70
2022/12/20 10:32:17;;;;;;;15.00;13.80;;;;;;;1.11;65.30;94197.81;5073404;28;20884;-70
2022/12/20 10:34:54;;;;;;;14.23;13.00;;;;;;;1.17;64.01;94197.06;5085638;28;20201;-68
2022/12/20 10:37:20;;;;;;;15.97;14.33;;;;;;;1.15;64.48;94178.44;5088844;28;20251;-69
2022/12/20 10:39:48;;;;;;;17.47;15.70;;;;;;;1.22;64.40;94187.03;5088411;28;20203;-69
2022/12/20 10:42:30;;;;;;;14.13;12.93;;;;;;;1.08;64.46;94177.59;5079368;28;20221;-69
2022/12/20 10:44:56;;;;;;;14.43;13.23;;;;;;;1.16;65.76;94169.78;5086286;28;20189;-71
2022/12/20 10:47:34;;;;;;;14.90;13.60;;;;;;;1.02;67.42;94169.81;5088708;28;20280;-69
2022/12/20 10:50:16;;;;;;;15.03;13.63;;;;;;;1.11;66.48;94164.38;5083105;28;20211;-69
2022/12/20 10:52:43;;;;;;;15.33;13.77;;;;;;;1.24;64.24;94158.56;5084368;28;20948;-70
2022/12/20 10:55:44;;;;;;;15.37;14.07;;;;;;;1.48;63.18;94163.31;5085862;28;20234;-69
2022/12/20 10:58:34;;;;;;;15.00;13.63;;;;;;;1.64;60.30;94166.44;5006202;28;20210;-70
2022/12/20 11:01:19;;;;;;;15.33;14.03;;;;;;;1.64;60.11;94158.72;5079445;28;20258;-70
2022/12/20 11:04:00;;;;;;;14.37;13.13;;;;;;;1.54;61.69;94149.72;5071662;28;20192;-70
2022/12/20 11:06:41;;;;;;;16.10;13.90;;;;;;;1.67;60.45;94154.97;5088363;28;20246;-69
2022/12/20 11:09:29;;;;;;;14.87;13.40;;;;;;;1.52;59.80;94142.19;5084491;28;20216;-70
2022/12/20 11:12:10;;;;;;;14.63;13.20;;;;;;;1.60;60.63;94144.59;5087993;28;20251;-70
2022/12/20 11:14:36;;;;;;;14.50;13.13;;;;;;;1.40;61.54;94132.59;5089011;28;20205;-70
2022/12/20 11:17:22;;;;;;;15.47;14.00;;;;;;;1.32;63.21;94132.72;5088855;28;20224;-70
2022/12/20 11:19:56;;;;;;;14.63;13.13;;;;;;;1.54;61.48;94142.78;5070278;28;20246;-70
2022/12/20 11:22:36;;;;;;;14.13;12.80;;;;;;;1.68;60.97;94134.19;5070029;28;20215;-69
2022/12/20 11:25:26;;;;;;;13.07;11.97;;;;;;;1.95;58.68;94135.16;5085661;28;20180;-70
2022/12/20 11:28:20;;;;;;;14.60;13.30;;;;;;;1.84;59.11;94134.91;5079658;28;20213;-70
2022/12/20 11:31:01;;;;;;;14.93;13.67;;;;;;;2.17;58.75;94123.00;5088265;28;20233;-70
2022/12/20 11:33:33;;;;;;;14.30;13.20;;;;;;;1.88;59.67;94118.06;5088886;28;20221;-70
2022/12/20 11:36:07;;;;;;;15.43;14.13;;;;;;;1.92;58.71;94130.38;5088932;28;20293;-70